Time;durP1;ratioP1;P1;durP2;ratioP2;P2;SDS_P1;SDS_P2;PMS_P1;PMS_P2;Temp;Humidity;BMP_temperature;BMP_pressure;BME280_temperature;BME280_humidity;BME280_pressure;Samples;Min_cycle;Max_cycle;Signal;HPM_P1;HPM_P2
2021/01/03 00:00:11;;;;;;;47.23;30.57;;;3.60;1.80;;;;;;5022693;28;20191;-59
2021/01/03 00:02:37;;;;;;;50.40;28.80;;;3.60;4.20;;;;;;5015032;28;20464;-58
2021/01/03 00:05:03;;;;;;;46.60;28.80;;;3.60;6.10;;;;;;5025452;28;20205;-59
2021/01/03 00:07:28;;;;;;;48.05;29.15;;;3.60;19.00;;;;;;5027683;28;20209;-58
2021/01/03 00:09:54;;;;;;;48.40;28.80;;;3.60;11.20;;;;;;5018287;28;20182;-59
2021/01/03 00:12:20;;;;;;;48.33;29.83;;;3.70;7.80;;;;;;5029596;28;20174;-58
2021/01/03 00:14:45;;;;;;;49.00;30.43;;;3.70;6.70;;;;;;5029899;28;20183;-58
2021/01/03 00:17:11;;;;;;;43.97;27.57;;;3.70;9.10;;;;;;5022333;28;20270;-58
2021/01/03 00:19:36;;;;;;;44.40;27.70;;;3.70;8.20;;;;;;5021607;28;20195;-58
2021/01/03 00:22:02;;;;;;;49.03;29.30;;;3.70;9.50;;;;;;5024713;28;20187;-58
2021/01/03 00:24:28;;;;;;;52.67;29.93;;;3.80;15.50;;;;;;5028385;28;20735;-59
2021/01/03 00:26:53;;;;;;;51.37;28.63;;;3.70;8.50;;;;;;5029955;28;20186;-59
2021/01/03 00:29:19;;;;;;;49.20;29.40;;;3.70;1.00;;;;;;5021876;28;20191;-60
2021/01/03 00:31:49;;;;;;;49.60;29.67;;;3.80;1.00;;;;;;5026037;28;20187;-60
2021/01/03 00:34:16;;;;;;;49.05;29.60;;;3.70;1.00;;;;;;5028257;28;20198;-58
2021/01/03 00:36:42;;;;;;;47.72;29.13;;;3.70;1.00;;;;;;5029835;28;20178;-59
2021/01/03 00:39:08;;;;;;;47.07;28.60;;;3.70;1.00;;;;;;5027710;28;20620;-56
2021/01/03 00:41:35;;;;;;;54.10;30.80;;;3.60;9.50;;;;;;5029720;28;20252;-59
2021/01/03 00:44:02;;;;;;;49.20;29.48;;;3.60;2.70;;;;;;5019049;28;20178;-58
2021/01/03 00:46:27;;;;;;;45.03;27.38;;;3.60;4.00;;;;;;5029341;28;20228;-59
2021/01/03 00:48:53;;;;;;;47.90;28.97;;;3.60;4.20;;;;;;5019423;28;20190;-59
2021/01/03 00:51:19;;;;;;;45.50;29.03;;;3.70;7.80;;;;;;5024386;28;20174;-58
2021/01/03 00:53:44;;;;;;;47.30;28.70;;;3.70;10.60;;;;;;5025362;28;20214;-60
2021/01/03 00:56:10;;;;;;;46.00;28.20;;;3.70;6.30;;;;;;5029320;28;20258;-59
2021/01/03 00:58:35;;;;;;;42.70;27.93;;;3.70;10.90;;;;;;5029349;28;20178;-58
2021/01/03 01:01:01;;;;;;;45.63;28.10;;;3.70;11.70;;;;;;5028069;28;20236;-60
2021/01/03 01:03:28;;;;;;;49.40;30.23;;;3.70;14.30;;;;;;5029628;28;20193;-60
2021/01/03 01:05:54;;;;;;;46.63;28.58;;;3.70;11.30;;;;;;5027903;28;20962;-60
2021/01/03 01:08:20;;;;;;;52.08;29.60;;;3.60;15.30;;;;;;5028593;28;20171;-60
2021/01/03 01:10:46;;;;;;;50.60;31.07;;;3.50;25.80;;;;;;5028323;28;20186;-60
2021/01/03 01:13:11;;;;;;;47.00;29.97;;;3.50;36.10;;;;;;5029082;28;20424;-61
2021/01/03 01:15:37;;;;;;;53.90;31.20;;;3.50;40.70;;;;;;5026960;28;20190;-60
2021/01/03 01:18:06;;;;;;;49.73;29.63;;;3.40;43.40;;;;;;5048267;28;20190;-59
2021/01/03 01:20:33;;;;;;;49.08;29.60;;;3.40;49.60;;;;;;5023980;28;20197;-59
2021/01/03 01:22:59;;;;;;;56.58;31.50;;;3.30;53.30;;;;;;5022225;28;20187;-59
2021/01/03 01:25:27;;;;;;;54.25;29.58;;;3.30;57.40;;;;;;5014723;28;20263;-59
2021/01/03 01:27:54;;;;;;;51.13;30.75;;;3.30;58.50;;;;;;5024868;28;20183;-58
2021/01/03 01:30:21;;;;;;;49.80;28.73;;;3.20;65.40;;;;;;5028317;28;20181;-59
2021/01/03 01:32:47;;;;;;;47.20;29.15;;;3.20;72.40;;;;;;5027955;28;20193;-60
2021/01/03 01:35:17;;;;;;;50.40;29.97;;;3.10;75.70;;;;;;5025902;28;20943;-59
2021/01/03 01:37:42;;;;;;;49.40;29.95;;;3.10;76.30;;;;;;5025602;28;20679;-60
2021/01/03 01:40:10;;;;;;;49.87;29.30;;;3.00;74.50;;;;;;5028803;28;20280;-59
2021/01/03 01:42:36;;;;;;;54.28;30.15;;;2.90;78.70;;;;;;5024096;28;20189;-58
2021/01/03 01:45:04;;;;;;;55.53;31.80;;;2.90;85.50;;;;;;5024469;28;20197;-59
2021/01/03 01:47:35;;;;;;;48.30;28.75;;;2.90;90.60;;;;;;5024488;28;20174;-59
2021/01/03 01:50:05;;;;;;;51.92;30.33;;;2.90;90.80;;;;;;5025618;28;20182;-60
2021/01/03 01:52:37;;;;;;;50.88;29.98;;;2.80;90.10;;;;;;5035776;28;20549;-59
2021/01/03 01:55:09;;;;;;;48.85;30.20;;;2.80;93.30;;;;;;5019339;28;20261;-60
2021/01/03 01:57:47;;;;;;;51.38;31.23;;;2.80;95.20;;;;;;5021331;28;20566;-60
2021/01/03 02:00:19;;;;;;;51.88;30.73;;;2.70;95.60;;;;;;5028662;28;20699;-60
2021/01/03 02:02:48;;;;;;;55.17;31.58;;;2.80;96.00;;;;;;5015494;28;20209;-60
2021/01/03 02:05:21;;;;;;;53.58;30.92;;;2.80;99.20;;;;;;5016575;28;20963;-60
2021/01/03 02:08:18;;;;;;;49.08;29.65;;;2.70;98.30;;;;;;5019968;28;20247;-61
2021/01/03 02:10:47;;;;;;;50.83;29.88;;;2.70;97.90;;;;;;5026148;28;20190;-60
2021/01/03 02:13:26;;;;;;;51.67;30.50;;;2.70;99.90;;;;;;5022417;28;20194;-60
2021/01/03 02:15:58;;;;;;;56.53;30.55;;;2.70;99.90;;;;;;5023224;28;20190;-59
2021/01/03 02:18:24;;;;;;;49.92;28.95;;;2.60;99.90;;;;;;5024661;28;20190;-60
2021/01/03 02:21:05;;;;;;;56.93;32.07;;;2.70;99.90;;;;;;5032030;28;20182;-59
2021/01/03 02:23:52;;;;;;;46.42;30.33;;;2.70;99.90;;;;;;5028402;28;20471;-60
2021/01/03 02:26:21;;;;;;;54.90;30.23;;;2.60;99.90;;;;;;5025780;28;20207;-60
2021/01/03 02:28:47;;;;;;;47.58;29.05;;;2.60;99.90;;;;;;5031016;28;20273;-60
2021/01/03 02:31:17;;;;;;;56.13;31.90;;;2.60;99.90;;;;;;5029026;28;20739;-61
2021/01/03 02:33:46;;;;;;;47.33;29.45;;;2.60;99.90;;;;;;5024277;28;20452;-60
2021/01/03 02:36:22;;;;;;;54.67;31.83;;;2.60;99.90;;;;;;5012651;28;20270;-60
2021/01/03 02:39:04;;;;;;;52.70;30.98;;;2.40;99.90;;;;;;5023827;28;20192;-60
2021/01/03 02:41:30;;;;;;;50.60;30.35;;;2.30;99.90;;;;;;5012899;28;20273;-59
2021/01/03 02:43:56;;;;;;;51.47;31.37;;;2.20;99.90;;;;;;5027842;28;20640;-59
2021/01/03 02:46:23;;;;;;;57.37;31.20;;;2.10;99.90;;;;;;5033399;28;20276;-59
2021/01/03 02:48:48;;;;;;;49.67;29.20;;;2.10;99.90;;;;;;5028879;28;20436;-61
2021/01/03 02:51:14;;;;;;;53.60;30.83;;;2.10;99.90;;;;;;5028568;28;20184;-60
2021/01/03 02:53:39;;;;;;;52.23;29.67;;;2.00;99.90;;;;;;5029846;28;20561;-61
2021/01/03 02:56:05;;;;;;;56.40;30.60;;;2.00;99.90;;;;;;5011134;28;20201;-61
2021/01/03 02:58:31;;;;;;;57.77;31.50;;;1.90;99.90;;;;;;5027923;28;20193;-60
2021/01/03 03:00:56;;;;;;;55.17;32.67;;;1.90;99.90;;;;;;5030851;28;21103;-60
2021/01/03 03:03:22;;;;;;;55.10;31.80;;;1.90;99.90;;;;;;5031926;28;20248;-60
2021/01/03 03:05:47;;;;;;;58.00;31.93;;;1.90;99.90;;;;;;5030711;28;20209;-60
2021/01/03 03:08:13;;;;;;;50.53;30.93;;;1.90;99.90;;;;;;5027620;28;20630;-60
2021/01/03 03:10:39;;;;;;;57.57;32.20;;;1.90;99.90;;;;;;5030961;28;20185;-60
2021/01/03 03:13:07;;;;;;;53.50;30.10;;;1.90;99.90;;;;;;5016739;28;20857;-60
2021/01/03 03:15:33;;;;;;;54.10;30.58;;;1.90;99.90;;;;;;5011868;28;20221;-60
2021/01/03 03:18:02;;;;;;;54.70;30.60;;;1.90;99.90;;;;;;5030891;28;20225;-60
2021/01/03 03:20:28;;;;;;;53.67;30.50;;;1.90;99.90;;;;;;5024287;28;20269;-60
2021/01/03 03:22:54;;;;;;;53.30;30.90;;;1.90;99.90;;;;;;5030221;28;20197;-60
2021/01/03 03:25:21;;;;;;;55.43;30.80;;;1.90;99.90;;;;;;5029107;28;20225;-60
2021/01/03 03:27:47;;;;;;;54.42;32.13;;;1.90;99.90;;;;;;5027756;28;20185;-60
2021/01/03 03:30:17;;;;;;;46.70;30.13;;;1.90;99.90;;;;;;5031205;28;20177;-60
2021/01/03 03:32:43;;;;;;;55.28;32.00;;;1.90;99.90;;;;;;5029300;28;20557;-60
2021/01/03 03:35:10;;;;;;;58.60;31.17;;;1.90;99.90;;;;;;5028505;28;21390;-60
2021/01/03 03:37:39;;;;;;;54.10;31.77;;;2.00;99.90;;;;;;5012456;28;20266;-60
2021/01/03 03:40:05;;;;;;;55.45;31.52;;;2.00;99.90;;;;;;5031262;28;20293;-60
2021/01/03 03:42:32;;;;;;;48.20;31.15;;;2.00;99.90;;;;;;5029542;28;20173;-59
2021/01/03 03:44:58;;;;;;;54.45;29.55;;;2.00;99.90;;;;;;5026128;28;20214;-60
2021/01/03 03:47:27;;;;;;;58.40;31.67;;;2.00;99.90;;;;;;5022558;28;20211;-60
2021/01/03 03:49:53;;;;;;;51.38;29.80;;;1.90;99.90;;;;;;5011866;28;20659;-60
2021/01/03 03:52:19;;;;;;;48.95;29.65;;;1.90;99.90;;;;;;5021045;28;20231;-60
2021/01/03 03:54:44;;;;;;;54.37;30.70;;;1.90;99.90;;;;;;5028718;28;20781;-60
2021/01/03 03:57:10;;;;;;;53.10;30.63;;;1.90;99.90;;;;;;5021396;28;20181;-60
2021/01/03 03:59:37;;;;;;;54.47;30.57;;;1.90;99.90;;;;;;5030248;28;20256;-60
2021/01/03 04:02:03;;;;;;;51.85;30.33;;;1.80;99.90;;;;;;5030582;28;20537;-61
2021/01/03 04:04:29;;;;;;;52.00;31.90;;;1.80;99.90;;;;;;5014619;28;20193;-61
2021/01/03 04:06:55;;;;;;;53.60;31.33;;;1.80;99.90;;;;;;5020640;28;20181;-61
2021/01/03 04:09:20;;;;;;;51.40;31.63;;;1.80;99.90;;;;;;5016003;28;20186;-61
2021/01/03 04:11:49;;;;;;;49.60;30.30;;;1.80;99.90;;;;;;5018779;28;20209;-61
2021/01/03 04:14:17;;;;;;;59.53;31.05;;;1.80;99.90;;;;;;5020374;28;20192;-61
2021/01/03 04:16:48;;;;;;;53.97;31.20;;;1.80;99.90;;;;;;5018707;28;20184;-61
2021/01/03 04:19:14;;;;;;;53.08;31.92;;;1.80;99.90;;;;;;5021186;28;20189;-61
2021/01/03 04:21:40;;;;;;;52.28;30.77;;;1.80;99.90;;;;;;5027854;28;20662;-61
2021/01/03 04:24:06;;;;;;;54.40;30.40;;;1.80;99.90;;;;;;5029036;28;20632;-61
2021/01/03 04:26:33;;;;;;;56.15;33.63;;;1.80;99.90;;;;;;5020698;28;20229;-62
2021/01/03 04:28:58;;;;;;;53.40;31.08;;;1.90;99.90;;;;;;5017962;28;20216;-61
2021/01/03 04:31:24;;;;;;;47.40;30.80;;;1.90;99.90;;;;;;5027787;28;20596;-60
2021/01/03 04:33:50;;;;;;;54.67;32.47;;;1.90;99.90;;;;;;5018450;28;20208;-60
2021/01/03 04:36:17;;;;;;;54.97;31.03;;;1.90;99.90;;;;;;5020625;28;20549;-60
2021/01/03 04:38:43;;;;;;;52.85;31.77;;;1.90;99.90;;;;;;5017800;28;20273;-61
2021/01/03 04:41:17;;;;;;;53.30;31.25;;;1.90;99.90;;;;;;5003857;28;20795;-61
2021/01/03 04:43:43;;;;;;;52.60;31.50;;;1.90;99.90;;;;;;5007063;28;20193;-61
2021/01/03 04:46:15;;;;;;;52.77;32.80;;;2.00;99.90;;;;;;5009718;28;20225;-61
2021/01/03 04:48:42;;;;;;;64.03;32.13;;;2.00;99.90;;;;;;4992466;28;20196;-61
2021/01/03 04:51:20;;;;;;;47.45;30.25;;;2.00;99.90;;;;;;5009972;28;20249;-61
2021/01/03 04:54:09;;;;;;;55.45;32.50;;;2.00;99.90;;;;;;4995349;28;20182;-61
2021/01/03 04:56:34;;;;;;;51.50;30.77;;;2.00;99.90;;;;;;5007671;28;20201;-60
2021/01/03 04:59:12;;;;;;;50.97;30.90;;;2.00;99.90;;;;;;5005497;28;20671;-61
2021/01/03 05:01:38;;;;;;;58.22;33.88;;;2.00;99.90;;;;;;4993562;28;20182;-61
2021/01/03 05:04:41;;;;;;;45.90;30.33;;;2.00;99.90;;;;;;5002713;28;20189;-61
2021/01/03 05:07:16;;;;;;;55.58;31.20;;;1.90;99.90;;;;;;5004642;28;20221;-61
2021/01/03 05:09:41;;;;;;;49.83;30.20;;;1.90;99.90;;;;;;5005671;28;20177;-61
2021/01/03 05:12:27;;;;;;;54.60;30.73;;;1.90;99.90;;;;;;4995743;28;20265;-61
2021/01/03 05:15:01;;;;;;;50.70;31.45;;;1.90;99.90;;;;;;5007704;28;20713;-61
2021/01/03 05:17:27;;;;;;;52.83;31.55;;;1.90;99.90;;;;;;5004637;28;20247;-61
2021/01/03 05:19:53;;;;;;;48.78;30.55;;;1.80;99.90;;;;;;5002953;28;20221;-61
2021/01/03 05:22:37;;;;;;;53.00;31.00;;;1.80;99.90;;;;;;4999368;28;20639;-61
2021/01/03 05:25:07;;;;;;;50.50;31.75;;;1.80;99.90;;;;;;5006209;28;20332;-61
2021/01/03 05:27:33;;;;;;;53.38;32.15;;;1.80;99.90;;;;;;5009776;28;20194;-61
2021/01/03 05:30:19;;;;;;;49.63;30.43;;;1.80;99.90;;;;;;5003831;28;20691;-62
2021/01/03 05:32:45;;;;;;;55.55;32.55;;;1.80;99.90;;;;;;5002778;28;20445;-60
2021/01/03 05:35:36;;;;;;;53.00;31.73;;;1.80;99.90;;;;;;5003206;28;20221;-61
2021/01/03 05:38:02;;;;;;;50.60;30.35;;;1.80;99.90;;;;;;5004553;28;20178;-60
2021/01/03 05:40:43;;;;;;;52.55;32.92;;;1.90;99.90;;;;;;5009258;28;20324;-62
2021/01/03 05:43:25;;;;;;;54.85;32.85;;;1.90;99.90;;;;;;5027740;28;20211;-61
2021/01/03 05:46:06;;;;;;;52.67;31.90;;;1.90;99.90;;;;;;5015723;28;20573;-61
2021/01/03 05:48:56;;;;;;;52.50;32.45;;;1.90;99.90;;;;;;5023230;28;20251;-60
2021/01/03 05:51:46;;;;;;;56.90;31.95;;;1.90;99.90;;;;;;5027735;28;20930;-61
2021/01/03 05:54:31;;;;;;;50.42;31.52;;;1.90;99.90;;;;;;5021964;28;20270;-61
2021/01/03 05:57:06;;;;;;;54.97;33.28;;;2.00;99.90;;;;;;5022985;28;20184;-60
2021/01/03 05:59:35;;;;;;;53.40;32.08;;;2.00;99.90;;;;;;5020141;28;20181;-61
2021/01/03 06:02:06;;;;;;;49.45;31.33;;;2.00;99.90;;;;;;5028031;28;20212;-61
2021/01/03 06:04:32;;;;;;;49.05;30.48;;;2.00;99.90;;;;;;5023820;28;21041;-61
2021/01/03 06:07:07;;;;;;;55.10;32.27;;;2.10;99.90;;;;;;5015005;28;20178;-61
2021/01/03 06:09:42;;;;;;;49.33;32.40;;;2.10;99.90;;;;;;5030597;28;20224;-61
2021/01/03 06:12:22;;;;;;;55.22;31.58;;;2.10;99.90;;;;;;5032778;28;20564;-61
2021/01/03 06:14:54;;;;;;;51.30;32.72;;;2.10;99.90;;;;;;5032877;28;20594;-61
2021/01/03 06:17:40;;;;;;;48.45;31.35;;;2.00;99.90;;;;;;5029693;28;20554;-61
2021/01/03 06:20:16;;;;;;;54.72;32.92;;;2.00;99.90;;;;;;5018051;28;20209;-61
2021/01/03 06:22:49;;;;;;;53.25;32.10;;;2.00;99.90;;;;;;5029812;28;20195;-61
2021/01/03 06:25:20;;;;;;;49.17;31.55;;;1.90;99.90;;;;;;5022308;28;20220;-61
2021/01/03 06:27:49;;;;;;;50.67;31.13;;;2.00;99.90;;;;;;5016866;28;20221;-61
2021/01/03 06:30:18;;;;;;;48.90;31.95;;;1.90;99.90;;;;;;5030469;28;20220;-60
2021/01/03 06:33:19;;;;;;;44.92;30.75;;;1.90;99.90;;;;;;5016324;28;20220;-61
2021/01/03 06:35:56;;;;;;;44.55;29.40;;;1.90;99.90;;;;;;5027788;28;20597;-61
2021/01/03 06:38:30;;;;;;;46.50;28.55;;;1.90;99.90;;;;;;5024156;28;20178;-61
2021/01/03 06:41:22;;;;;;;46.67;28.83;;;2.00;99.90;;;;;;5022734;28;20238;-61
2021/01/03 06:44:18;;;;;;;39.13;27.65;;;2.00;99.90;;;;;;5026710;28;20185;-62
2021/01/03 06:47:19;;;;;;;42.70;28.45;;;1.90;99.90;;;;;;5029245;28;20205;-60
2021/01/03 06:50:03;;;;;;;42.40;27.95;;;1.90;99.90;;;;;;5030215;28;20223;-61
2021/01/03 06:52:48;;;;;;;40.60;26.60;;;1.90;99.90;;;;;;5030630;28;20185;-61
2021/01/03 06:55:35;;;;;;;39.17;25.52;;;1.90;99.90;;;;;;5025380;28;20193;-61
2021/01/03 06:58:34;;;;;;;38.47;26.88;;;1.90;99.90;;;;;;5029113;28;20267;-61
2021/01/03 07:01:21;;;;;;;40.53;26.10;;;1.90;99.90;;;;;;5033392;28;20185;-60
2021/01/03 07:03:50;;;;;;;43.00;25.15;;;1.90;99.90;;;;;;5023477;28;20527;-61
2021/01/03 07:06:16;;;;;;;35.65;25.25;;;1.90;99.90;;;;;;5031631;28;20275;-61
2021/01/03 07:08:49;;;;;;;39.53;26.30;;;1.90;99.90;;;;;;5023499;28;20976;-61
2021/01/03 07:11:40;;;;;;;36.78;25.15;;;1.80;99.90;;;;;;5027870;28;20244;-61
2021/01/03 07:14:28;;;;;;;42.92;26.10;;;1.80;99.90;;;;;;5032710;28;20185;-62
2021/01/03 07:17:04;;;;;;;33.58;24.40;;;1.80;99.90;;;;;;5019304;28;20566;-60
2021/01/03 07:19:33;;;;;;;39.45;24.77;;;1.80;99.90;;;;;;5011686;28;20755;-61
2021/01/03 07:22:13;;;;;;;39.10;25.30;;;1.80;99.90;;;;;;5013158;28;20246;-60
2021/01/03 07:24:51;;;;;;;34.85;24.48;;;1.80;99.90;;;;;;5011208;28;21446;-60
2021/01/03 07:27:23;;;;;;;37.75;25.02;;;1.80;99.90;;;;;;5020054;28;20240;-60
2021/01/03 07:30:11;;;;;;;36.08;24.30;;;1.70;99.90;;;;;;5012148;28;20209;-60
2021/01/03 07:32:37;;;;;;;39.25;25.50;;;1.80;99.90;;;;;;5006006;28;20938;-59
2021/01/03 07:35:27;;;;;;;35.47;24.57;;;1.70;99.90;;;;;;5019518;28;20214;-60
2021/01/03 07:38:15;;;;;;;39.50;26.95;;;1.70;99.90;;;;;;5011187;28;20225;-60
2021/01/03 07:41:06;;;;;;;44.00;27.92;;;1.70;99.90;;;;;;5003778;28;20300;-61
2021/01/03 07:43:59;;;;;;;34.83;25.02;;;1.70;99.90;;;;;;5013159;28;20301;-61
2021/01/03 07:46:45;;;;;;;43.55;27.35;;;1.70;99.90;;;;;;5022987;28;20274;-61
2021/01/03 07:49:29;;;;;;;41.13;26.33;;;1.80;99.90;;;;;;5018921;28;20280;-61
2021/01/03 07:51:56;;;;;;;42.75;26.85;;;1.80;99.90;;;;;;5026327;28;20200;-60
2021/01/03 07:54:22;;;;;;;37.85;27.05;;;1.80;99.90;;;;;;5018569;28;20415;-61
2021/01/03 07:56:47;;;;;;;41.43;26.17;;;1.70;99.90;;;;;;5024141;28;20265;-61
2021/01/03 07:59:14;;;;;;;43.47;27.10;;;1.80;99.90;;;;;;5010995;28;20178;-61
2021/01/03 08:01:49;;;;;;;41.40;27.00;;;1.70;99.90;;;;;;5014171;28;20252;-60
2021/01/03 08:04:32;;;;;;;35.70;25.70;;;1.70;99.90;;;;;;5018265;28;20189;-59
2021/01/03 08:07:11;;;;;;;43.28;26.85;;;1.80;99.90;;;;;;5019665;28;20193;-60
2021/01/03 08:09:37;;;;;;;39.80;26.75;;;1.80;99.90;;;;;;5010164;28;20189;-59
2021/01/03 08:12:09;;;;;;;38.45;26.02;;;1.80;99.90;;;;;;5010976;28;20273;-58
2021/01/03 08:14:40;;;;;;;44.88;28.38;;;1.80;99.90;;;;;;5025512;28;20576;-58
2021/01/03 08:17:06;;;;;;;41.78;28.10;;;1.80;99.90;;;;;;5019570;28;20204;-59
2021/01/03 08:19:32;;;;;;;43.85;27.90;;;1.80;99.90;;;;;;5016284;28;21064;-59
2021/01/03 08:22:00;;;;;;;40.67;27.60;;;1.90;99.90;;;;;;5028043;28;20193;-60
2021/01/03 08:24:28;;;;;;;39.85;26.00;;;1.90;99.90;;;;;;5018042;28;20191;-59
2021/01/03 08:26:58;;;;;;;40.20;28.77;;;1.90;99.90;;;;;;5016519;28;20234;-59
2021/01/03 08:29:43;;;;;;;40.85;27.23;;;1.90;99.90;;;;;;5015943;28;20189;-59
2021/01/03 08:32:22;;;;;;;41.72;27.27;;;2.00;99.90;;;;;;5018264;28;20198;-60
2021/01/03 08:34:48;;;;;;;37.88;25.55;;;2.00;99.90;;;;;;5011660;28;20513;-60
2021/01/03 08:37:24;;;;;;;39.53;26.20;;;2.00;99.90;;;;;;5021191;28;20643;-59
2021/01/03 08:39:51;;;;;;;40.72;26.20;;;2.10;99.90;;;;;;5021325;28;20772;-59
2021/01/03 08:42:32;;;;;;;37.80;26.17;;;2.10;99.90;;;;;;5028115;28;20255;-58
2021/01/03 08:44:58;;;;;;;39.85;27.17;;;2.10;99.90;;;;;;5017905;28;20205;-61
2021/01/03 08:47:34;;;;;;;41.92;27.40;;;2.10;99.90;;;;;;5022530;28;20192;-61
2021/01/03 08:50:07;;;;;;;39.38;27.08;;;2.20;99.90;;;;;;5015850;28;20186;-59
2021/01/03 08:52:33;;;;;;;38.67;26.42;;;2.20;99.90;;;;;;5024483;28;20207;-61
2021/01/03 08:55:08;;;;;;;39.23;26.47;;;2.20;99.90;;;;;;5015990;28;20189;-61
2021/01/03 08:57:33;;;;;;;39.70;26.05;;;2.20;99.90;;;;;;5018706;28;20186;-60
2021/01/03 08:59:59;;;;;;;40.33;27.40;;;2.20;99.90;;;;;;5017348;28;20671;-61
2021/01/03 09:02:27;;;;;;;35.10;25.93;;;2.20;99.90;;;;;;5018375;28;20195;-60
2021/01/03 09:05:00;;;;;;;38.65;25.75;;;2.30;99.90;;;;;;5026884;28;20857;-61
2021/01/03 09:07:31;;;;;;;36.63;25.88;;;2.30;99.90;;;;;;5017753;28;20234;-61
2021/01/03 09:10:01;;;;;;;36.67;25.48;;;2.40;99.90;;;;;;5010913;28;20192;-60
2021/01/03 09:12:42;;;;;;;38.55;26.05;;;2.40;99.90;;;;;;5020957;28;20701;-60
2021/01/03 09:15:16;;;;;;;33.20;24.17;;;2.40;99.90;;;;;;5023400;28;20186;-58
2021/01/03 09:17:43;;;;;;;36.55;26.92;;;2.50;99.90;;;;;;5019511;28;20193;-59
2021/01/03 09:20:12;;;;;;;35.20;25.35;;;2.50;99.90;;;;;;5017521;28;20511;-62
2021/01/03 09:22:46;;;;;;;39.80;27.60;;;2.50;99.90;;;;;;5020770;28;20196;-62
2021/01/03 09:25:20;;;;;;;39.25;26.23;;;2.60;99.90;;;;;;5012647;28;20203;-62
2021/01/03 09:27:57;;;;;;;39.60;26.33;;;2.60;99.90;;;;;;5023837;28;20177;-61
2021/01/03 09:30:35;;;;;;;39.75;26.80;;;2.50;99.90;;;;;;5023947;28;20185;-59
2021/01/03 09:33:06;;;;;;;41.15;27.55;;;2.60;99.90;;;;;;5018427;28;20182;-59
2021/01/03 09:36:09;;;;;;;41.17;27.92;;;2.40;99.90;;;;;;5020440;28;20251;-59
2021/01/03 09:38:34;;;;;;;40.95;27.45;;;2.40;99.90;;;;;;5010514;28;20217;-58
2021/01/03 09:41:24;;;;;;;39.13;28.17;;;2.40;99.90;;;;;;5012072;28;20223;-58
2021/01/03 09:44:21;;;;;;;36.88;26.23;;;2.40;99.90;;;;;;5016364;28;20260;-59
2021/01/03 09:46:57;;;;;;;41.47;26.88;;;2.50;99.90;;;;;;5010349;28;20275;-58
2021/01/03 09:49:29;;;;;;;41.13;26.98;;;2.50;99.90;;;;;;5021062;28;20185;-60
2021/01/03 09:52:19;;;;;;;40.47;25.42;;;2.50;99.90;;;;;;5026313;28;20178;-61
2021/01/03 09:55:03;;;;;;;42.08;27.02;;;2.60;99.90;;;;;;5023132;28;20189;-58
2021/01/03 09:57:44;;;;;;;41.65;26.83;;;2.70;99.90;;;;;;5010129;28;20237;-60
2021/01/03 10:00:23;;;;;;;35.63;25.88;;;2.60;99.90;;;;;;5015991;28;20200;-59
2021/01/03 10:02:49;;;;;;;38.53;27.50;;;2.70;99.90;;;;;;5018912;28;20185;-59
2021/01/03 10:05:32;;;;;;;38.10;27.13;;;2.70;99.90;;;;;;5019696;28;20225;-59
2021/01/03 10:08:06;;;;;;;39.28;25.77;;;2.80;99.90;;;;;;5020915;28;20274;-62
2021/01/03 10:10:41;;;;;;;39.33;26.05;;;2.80;99.90;;;;;;5016192;28;20406;-60
2021/01/03 10:13:08;;;;;;;42.20;27.73;;;2.80;99.90;;;;;;5009671;28;20190;-60
2021/01/03 10:15:34;;;;;;;38.58;27.15;;;2.80;99.90;;;;;;5013559;28;20663;-62
2021/01/03 10:18:03;;;;;;;41.97;28.40;;;2.80;99.90;;;;;;5012332;28;20191;-60
2021/01/03 10:20:32;;;;;;;40.25;27.58;;;2.80;99.90;;;;;;5009316;28;20239;-62
2021/01/03 10:22:58;;;;;;;43.90;27.15;;;2.70;99.90;;;;;;5017131;28;20545;-61
2021/01/03 10:25:24;;;;;;;38.50;27.30;;;2.70;99.90;;;;;;5013883;28;20238;-58
2021/01/03 10:28:04;;;;;;;41.23;27.43;;;2.70;99.90;;;;;;5012346;28;20613;-58
2021/01/03 10:30:30;;;;;;;37.88;27.38;;;2.70;99.90;;;;;;5015598;28;20178;-57
2021/01/03 10:32:56;;;;;;;37.97;26.80;;;2.80;99.90;;;;;;5011579;28;20542;-57
2021/01/03 10:35:22;;;;;;;41.33;28.88;;;2.80;99.90;;;;;;5010238;28;20193;-58
2021/01/03 10:37:48;;;;;;;36.30;25.52;;;2.90;99.90;;;;;;5010781;28;20272;-61
2021/01/03 10:40:15;;;;;;;38.70;27.27;;;2.90;99.90;;;;;;5017224;28;20235;-59
2021/01/03 10:42:40;;;;;;;36.13;26.00;;;2.90;99.90;;;;;;5017860;28;20906;-61
2021/01/03 10:45:06;;;;;;;41.37;28.90;;;2.90;99.90;;;;;;5012715;28;20225;-61
2021/01/03 10:47:32;;;;;;;38.75;26.67;;;3.00;99.90;;;;;;5025009;28;20185;-61
2021/01/03 10:49:58;;;;;;;33.20;25.43;;;3.00;99.90;;;;;;5025140;28;20179;-61
2021/01/03 10:52:23;;;;;;;35.23;25.73;;;3.00;99.90;;;;;;5030103;28;20171;-61
2021/01/03 10:54:49;;;;;;;38.43;26.30;;;3.00;99.90;;;;;;5020779;28;20683;-61
2021/01/03 10:57:14;;;;;;;41.07;27.67;;;3.00;99.90;;;;;;5019000;28;20193;-61
2021/01/03 10:59:40;;;;;;;38.87;26.40;;;3.10;99.90;;;;;;5031416;28;20645;-62
2021/01/03 11:02:06;;;;;;;38.90;27.00;;;3.10;99.90;;;;;;5026710;28;20245;-61
2021/01/03 11:04:31;;;;;;;33.93;25.30;;;3.10;99.90;;;;;;5026073;28;20532;-61
2021/01/03 11:06:57;;;;;;;37.50;26.87;;;3.20;99.90;;;;;;5030259;28;20232;-60
2021/01/03 11:09:26;;;;;;;38.60;25.67;;;3.20;99.90;;;;;;5029881;28;20201;-61
2021/01/03 11:12:08;;;;;;;34.97;25.20;;;3.20;99.90;;;;;;5022618;28;20270;-61
2021/01/03 11:14:34;;;;;;;35.08;23.92;;;3.30;99.90;;;;;;5016454;28;20174;-61
2021/01/03 11:17:00;;;;;;;34.63;24.65;;;3.30;99.90;;;;;;5028219;28;20348;-60
2021/01/03 11:19:25;;;;;;;37.87;26.57;;;3.30;99.90;;;;;;5025382;28;21026;-61
2021/01/03 11:21:59;;;;;;;37.23;25.77;;;3.30;99.90;;;;;;5024517;28;20444;-60
2021/01/03 11:24:25;;;;;;;36.45;25.25;;;3.30;99.90;;;;;;5019925;28;20505;-61
2021/01/03 11:26:51;;;;;;;33.67;23.77;;;3.30;99.90;;;;;;5018147;28;20260;-60
2021/01/03 11:29:20;;;;;;;39.05;24.67;;;3.40;99.90;;;;;;5017920;28;20425;-60
2021/01/03 11:31:53;;;;;;;33.95;25.50;;;3.40;99.90;;;;;;5018498;28;20244;-62
2021/01/03 11:34:26;;;;;;;45.17;27.95;;;3.40;99.90;;;;;;5028025;28;20265;-59
2021/01/03 11:36:56;;;;;;;38.92;26.80;;;3.40;99.90;;;;;;5019260;28;20214;-63
2021/01/03 11:39:23;;;;;;;39.58;27.30;;;3.40;99.90;;;;;;5020091;28;20243;-60
2021/01/03 11:41:51;;;;;;;41.75;27.50;;;3.40;99.90;;;;;;5020101;28;20598;-60
2021/01/03 11:44:18;;;;;;;40.53;27.58;;;3.40;99.90;;;;;;5021760;28;20189;-60
2021/01/03 11:46:43;;;;;;;38.30;26.33;;;3.40;99.90;;;;;;5026886;28;20261;-60
2021/01/03 11:49:09;;;;;;;39.10;26.43;;;3.40;99.90;;;;;;5026803;28;20185;-59
2021/01/03 11:51:35;;;;;;;36.50;26.55;;;3.50;99.90;;;;;;5024890;28;20198;-60
2021/01/03 11:54:01;;;;;;;33.90;25.57;;;3.50;99.90;;;;;;5011791;28;20210;-59
2021/01/03 11:56:26;;;;;;;39.27;27.57;;;3.50;99.90;;;;;;5026435;28;20179;-60
2021/01/03 11:58:52;;;;;;;42.30;28.27;;;3.50;99.90;;;;;;5030452;28;20195;-59
2021/01/03 12:01:19;;;;;;;36.73;27.37;;;3.50;99.90;;;;;;5030328;28;20251;-59
2021/01/03 12:03:46;;;;;;;44.47;27.58;;;3.50;99.90;;;;;;5022055;28;20183;-62
2021/01/03 12:06:17;;;;;;;38.72;27.00;;;3.60;99.90;;;;;;5023886;28;20720;-62
2021/01/03 12:08:44;;;;;;;39.90;28.13;;;3.60;99.90;;;;;;5028464;28;20193;-59
2021/01/03 12:11:16;;;;;;;38.75;26.85;;;3.60;99.90;;;;;;5025667;28;20250;-59
2021/01/03 12:13:46;;;;;;;39.97;27.02;;;3.70;99.90;;;;;;5028555;28;20175;-60
2021/01/03 12:16:16;;;;;;;41.75;28.13;;;3.70;99.90;;;;;;5024235;28;20221;-61
2021/01/03 12:18:42;;;;;;;41.45;28.33;;;3.70;99.90;;;;;;5025251;28;20187;-62
2021/01/03 12:21:07;;;;;;;42.50;27.80;;;3.70;99.90;;;;;;5024097;28;20689;-62
2021/01/03 12:23:33;;;;;;;39.03;27.40;;;3.80;99.90;;;;;;5028195;28;20531;-59
2021/01/03 12:25:58;;;;;;;42.97;27.77;;;3.80;99.90;;;;;;5027842;28;20253;-62
2021/01/03 12:28:24;;;;;;;39.53;28.13;;;3.70;99.90;;;;;;5026878;28;20213;-62
2021/01/03 12:30:51;;;;;;;42.37;28.53;;;3.70;99.90;;;;;;5026960;28;20190;-62
2021/01/03 12:33:16;;;;;;;39.88;28.67;;;3.70;99.90;;;;;;5023893;28;20184;-62
2021/01/03 12:35:42;;;;;;;39.70;27.87;;;3.60;99.90;;;;;;5026079;28;20676;-60
2021/01/03 12:38:07;;;;;;;45.40;30.13;;;3.60;99.90;;;;;;5023813;28;20256;-59
2021/01/03 12:40:33;;;;;;;44.53;29.80;;;3.60;99.90;;;;;;5027894;28;20269;-61
2021/01/03 12:43:00;;;;;;;43.47;30.50;;;3.60;99.90;;;;;;5026182;28;20187;-60
2021/01/03 12:45:26;;;;;;;43.83;30.50;;;3.60;99.90;;;;;;5026021;28;20186;-60
2021/01/03 12:47:52;;;;;;;46.75;29.42;;;3.60;99.90;;;;;;5021690;28;20218;-62
2021/01/03 12:50:18;;;;;;;47.67;30.30;;;3.60;99.90;;;;;;5014100;28;20234;-59
2021/01/03 12:52:44;;;;;;;49.33;32.03;;;3.60;99.90;;;;;;5015630;28;20256;-59
2021/01/03 12:55:10;;;;;;;48.60;30.07;;;3.60;99.90;;;;;;5023693;28;20693;-61
2021/01/03 12:57:35;;;;;;;45.73;30.63;;;3.50;99.90;;;;;;5024728;28;20193;-60